sensor_id;sensor_type;location;lat;lon;timestamp;P1;durP1;ratioP1;P2;durP2;ratioP2
17228;SDS011;8731;50.364;8.958;2023-05-10T00:00:32;4.43;;;4.03;;
17228;SDS011;8731;50.364;8.958;2023-05-10T00:04:56;5.50;;;3.80;;
17228;SDS011;8731;50.364;8.958;2023-05-10T00:09:18;4.43;;;4.00;;
17228;SDS011;8731;50.364;8.958;2023-05-10T00:13:40;4.40;;;4.00;;
17228;SDS011;8731;50.364;8.958;2023-05-10T00:18:03;3.90;;;3.60;;
17228;SDS011;8731;50.364;8.958;2023-05-10T00:22:27;3.80;;;3.40;;
17228;SDS011;8731;50.364;8.958;2023-05-10T00:26:49;3.23;;;2.83;;
17228;SDS011;8731;50.364;8.958;2023-05-10T00:31:12;4.30;;;3.47;;
17228;SDS011;8731;50.364;8.958;2023-05-10T00:35:35;7.30;;;4.37;;
17228;SDS011;8731;50.364;8.958;2023-05-10T00:39:59;3.10;;;2.80;;
17228;SDS011;8731;50.364;8.958;2023-05-10T00:44:22;1.77;;;1.40;;
17228;SDS011;8731;50.364;8.958;2023-05-10T00:48:45;2.60;;;0.80;;
17228;SDS011;8731;50.364;8.958;2023-05-10T00:53:07;0.50;;;0.50;;
17228;SDS011;8731;50.364;8.958;2023-05-10T00:57:32;1.03;;;0.63;;
17228;SDS011;8731;50.364;8.958;2023-05-10T01:01:55;0.50;;;0.50;;
17228;SDS011;8731;50.364;8.958;2023-05-10T01:06:18;2.13;;;0.80;;
17228;SDS011;8731;50.364;8.958;2023-05-10T01:10:40;1.00;;;0.50;;
17228;SDS011;8731;50.364;8.958;2023-05-10T01:15:07;1.17;;;0.53;;
17228;SDS011;8731;50.364;8.958;2023-05-10T01:19:34;0.67;;;0.53;;
17228;SDS011;8731;50.364;8.958;2023-05-10T01:24:09;1.70;;;0.80;;
17228;SDS011;8731;50.364;8.958;2023-05-10T01:29:13;0.40;;;0.27;;
17228;SDS011;8731;50.364;8.958;2023-05-10T01:34:04;0.60;;;0.30;;
17228;SDS011;8731;50.364;8.958;2023-05-10T01:38:36;1.67;;;0.73;;
17228;SDS011;8731;50.364;8.958;2023-05-10T01:43:07;0.63;;;0.40;;
17228;SDS011;8731;50.364;8.958;2023-05-10T01:47:41;1.07;;;0.47;;
17228;SDS011;8731;50.364;8.958;2023-05-10T01:52:08;1.93;;;0.30;;
17228;SDS011;8731;50.364;8.958;2023-05-10T01:56:33;0.53;;;0.50;;
17228;SDS011;8731;50.364;8.958;2023-05-10T02:01:01;1.80;;;0.50;;
17228;SDS011;8731;50.364;8.958;2023-05-10T02:05:27;1.10;;;0.40;;
17228;SDS011;8731;50.364;8.958;2023-05-10T02:09:54;1.23;;;0.40;;
17228;SDS011;8731;50.364;8.958;2023-05-10T02:14:17;0.50;;;0.30;;
17228;SDS011;8731;50.364;8.958;2023-05-10T02:18:44;0.67;;;0.30;;
17228;SDS011;8731;50.364;8.958;2023-05-10T02:23:09;0.93;;;0.30;;
17228;SDS011;8731;50.364;8.958;2023-05-10T02:27:34;1.00;;;0.50;;
17228;SDS011;8731;50.364;8.958;2023-05-10T02:31:59;0.77;;;0.50;;
17228;SDS011;8731;50.364;8.958;2023-05-10T02:36:24;2.40;;;0.53;;
17228;SDS011;8731;50.364;8.958;2023-05-10T02:40:48;0.93;;;0.40;;
17228;SDS011;8731;50.364;8.958;2023-05-10T02:45:15;0.70;;;0.40;;
17228;SDS011;8731;50.364;8.958;2023-05-10T02:49:42;0.93;;;0.40;;
17228;SDS011;8731;50.364;8.958;2023-05-10T02:54:06;0.80;;;0.50;;
17228;SDS011;8731;50.364;8.958;2023-05-10T02:58:33;0.47;;;0.40;;
17228;SDS011;8731;50.364;8.958;2023-05-10T03:02:57;1.30;;;0.40;;
17228;SDS011;8731;50.364;8.958;2023-05-10T03:07:22;2.37;;;0.60;;
17228;SDS011;8731;50.364;8.958;2023-05-10T03:11:47;1.37;;;1.00;;
17228;SDS011;8731;50.364;8.958;2023-05-10T03:16:22;0.67;;;0.60;;
17228;SDS011;8731;50.364;8.958;2023-05-10T03:20:54;2.43;;;0.80;;
17228;SDS011;8731;50.364;8.958;2023-05-10T03:25:25;2.40;;;0.83;;
17228;SDS011;8731;50.364;8.958;2023-05-10T03:29:50;6.40;;;1.30;;
17228;SDS011;8731;50.364;8.958;2023-05-10T03:34:14;3.17;;;1.03;;
17228;SDS011;8731;50.364;8.958;2023-05-10T03:38:39;1.20;;;1.10;;
17228;SDS011;8731;50.364;8.958;2023-05-10T03:43:01;3.33;;;1.10;;
17228;SDS011;8731;50.364;8.958;2023-05-10T03:47:24;3.70;;;1.50;;
17228;SDS011;8731;50.364;8.958;2023-05-10T03:51:46;3.80;;;1.20;;
17228;SDS011;8731;50.364;8.958;2023-05-10T03:56:11;2.27;;;1.10;;
17228;SDS011;8731;50.364;8.958;2023-05-10T04:00:33;1.03;;;1.00;;
17228;SDS011;8731;50.364;8.958;2023-05-10T04:04:56;1.83;;;0.90;;
17228;SDS011;8731;50.364;8.958;2023-05-10T04:09:18;0.97;;;0.80;;
17228;SDS011;8731;50.364;8.958;2023-05-10T04:13:42;2.27;;;0.80;;
17228;SDS011;8731;50.364;8.958;2023-05-10T04:18:05;1.17;;;0.87;;
17228;SDS011;8731;50.364;8.958;2023-05-10T04:22:27;1.30;;;0.70;;
17228;SDS011;8731;50.364;8.958;2023-05-10T04:26:50;1.20;;;0.87;;
17228;SDS011;8731;50.364;8.958;2023-05-10T04:31:14;1.33;;;1.07;;
17228;SDS011;8731;50.364;8.958;2023-05-10T04:35:36;2.80;;;1.37;;
17228;SDS011;8731;50.364;8.958;2023-05-10T04:40:00;1.33;;;1.23;;
17228;SDS011;8731;50.364;8.958;2023-05-10T04:44:23;2.50;;;1.30;;
17228;SDS011;8731;50.364;8.958;2023-05-10T04:48:47;1.60;;;1.40;;
17228;SDS011;8731;50.364;8.958;2023-05-10T04:53:09;4.27;;;1.57;;
17228;SDS011;8731;50.364;8.958;2023-05-10T04:57:32;1.63;;;1.40;;
17228;SDS011;8731;50.364;8.958;2023-05-10T05:01:55;1.23;;;1.00;;
17228;SDS011;8731;50.364;8.958;2023-05-10T05:06:18;1.13;;;1.00;;
17228;SDS011;8731;50.364;8.958;2023-05-10T05:10:41;2.07;;;1.20;;
17228;SDS011;8731;50.364;8.958;2023-05-10T05:15:03;2.50;;;1.20;;
17228;SDS011;8731;50.364;8.958;2023-05-10T05:19:28;2.20;;;1.17;;
17228;SDS011;8731;50.364;8.958;2023-05-10T05:23:54;4.00;;;1.37;;
17228;SDS011;8731;50.364;8.958;2023-05-10T05:28:16;3.40;;;1.30;;
17228;SDS011;8731;50.364;8.958;2023-05-10T05:32:39;1.37;;;1.13;;
17228;SDS011;8731;50.364;8.958;2023-05-10T05:37:01;1.77;;;1.60;;
17228;SDS011;8731;50.364;8.958;2023-05-10T05:41:25;2.10;;;1.10;;
17228;SDS011;8731;50.364;8.958;2023-05-10T05:45:47;5.43;;;1.00;;
17228;SDS011;8731;50.364;8.958;2023-05-10T05:50:10;3.40;;;1.37;;
17228;SDS011;8731;50.364;8.958;2023-05-10T05:54:32;3.17;;;1.23;;
17228;SDS011;8731;50.364;8.958;2023-05-10T05:58:56;2.60;;;1.40;;
17228;SDS011;8731;50.364;8.958;2023-05-10T06:03:18;2.33;;;1.30;;
17228;SDS011;8731;50.364;8.958;2023-05-10T06:07:42;4.57;;;1.40;;
17228;SDS011;8731;50.364;8.958;2023-05-10T06:12:04;1.40;;;1.13;;
17228;SDS011;8731;50.364;8.958;2023-05-10T06:16:28;2.87;;;1.00;;
17228;SDS011;8731;50.364;8.958;2023-05-10T06:20:51;2.80;;;1.03;;
17228;SDS011;8731;50.364;8.958;2023-05-10T06:25:13;1.67;;;1.07;;
17228;SDS011;8731;50.364;8.958;2023-05-10T06:29:37;2.77;;;1.23;;
17228;SDS011;8731;50.364;8.958;2023-05-10T06:34:01;1.37;;;1.20;;
17228;SDS011;8731;50.364;8.958;2023-05-10T06:38:24;2.03;;;1.10;;
17228;SDS011;8731;50.364;8.958;2023-05-10T06:42:46;1.87;;;1.13;;
17228;SDS011;8731;50.364;8.958;2023-05-10T06:47:09;1.10;;;1.00;;
17228;SDS011;8731;50.364;8.958;2023-05-10T06:51:32;1.77;;;1.20;;
17228;SDS011;8731;50.364;8.958;2023-05-10T06:55:55;2.00;;;1.67;;
17228;SDS011;8731;50.364;8.958;2023-05-10T07:00:18;1.67;;;1.20;;
17228;SDS011;8731;50.364;8.958;2023-05-10T07:04:41;1.70;;;1.53;;
17228;SDS011;8731;50.364;8.958;2023-05-10T07:09:05;4.40;;;1.30;;
17228;SDS011;8731;50.364;8.958;2023-05-10T07:13:28;1.83;;;1.40;;
17228;SDS011;8731;50.364;8.958;2023-05-10T07:17:51;1.67;;;1.40;;
17228;SDS011;8731;50.364;8.958;2023-05-10T07:22:14;2.03;;;1.83;;
17228;SDS011;8731;50.364;8.958;2023-05-10T07:26:38;3.30;;;1.80;;
17228;SDS011;8731;50.364;8.958;2023-05-10T07:31:01;5.43;;;1.90;;
17228;SDS011;8731;50.364;8.958;2023-05-10T07:35:23;1.57;;;1.37;;
17228;SDS011;8731;50.364;8.958;2023-05-10T07:39:45;1.87;;;1.70;;
17228;SDS011;8731;50.364;8.958;2023-05-10T07:44:09;4.27;;;1.80;;
17228;SDS011;8731;50.364;8.958;2023-05-10T07:48:31;2.30;;;2.10;;
17228;SDS011;8731;50.364;8.958;2023-05-10T07:52:54;2.77;;;2.30;;
17228;SDS011;8731;50.364;8.958;2023-05-10T07:57:17;1.97;;;1.67;;
17228;SDS011;8731;50.364;8.958;2023-05-10T08:01:41;2.20;;;1.43;;
17228;SDS011;8731;50.364;8.958;2023-05-10T08:06:04;3.23;;;1.90;;
17228;SDS011;8731;50.364;8.958;2023-05-10T08:10:27;4.37;;;2.20;;
17228;SDS011;8731;50.364;8.958;2023-05-10T08:14:50;2.93;;;2.00;;
17228;SDS011;8731;50.364;8.958;2023-05-10T08:19:13;3.27;;;2.30;;
17228;SDS011;8731;50.364;8.958;2023-05-10T08:23:39;2.50;;;2.00;;
17228;SDS011;8731;50.364;8.958;2023-05-10T08:28:03;3.50;;;2.07;;
17228;SDS011;8731;50.364;8.958;2023-05-10T08:32:26;3.33;;;2.30;;
17228;SDS011;8731;50.364;8.958;2023-05-10T08:36:50;4.63;;;2.20;;
17228;SDS011;8731;50.364;8.958;2023-05-10T08:41:12;3.93;;;2.30;;
17228;SDS011;8731;50.364;8.958;2023-05-10T08:45:36;3.63;;;2.53;;
17228;SDS011;8731;50.364;8.958;2023-05-10T08:50:01;3.00;;;2.10;;
17228;SDS011;8731;50.364;8.958;2023-05-10T08:54:26;3.73;;;2.40;;
17228;SDS011;8731;50.364;8.958;2023-05-10T08:58:50;5.43;;;2.33;;
17228;SDS011;8731;50.364;8.958;2023-05-10T09:03:12;3.10;;;1.90;;
17228;SDS011;8731;50.364;8.958;2023-05-10T09:07:35;4.87;;;2.23;;
17228;SDS011;8731;50.364;8.958;2023-05-10T09:12:00;6.63;;;2.67;;
17228;SDS011;8731;50.364;8.958;2023-05-10T09:16:22;2.97;;;2.23;;
17228;SDS011;8731;50.364;8.958;2023-05-10T09:20:45;7.17;;;2.20;;
17228;SDS011;8731;50.364;8.958;2023-05-10T09:25:08;3.83;;;2.40;;
17228;SDS011;8731;50.364;8.958;2023-05-10T09:29:40;3.93;;;2.60;;
17228;SDS011;8731;50.364;8.958;2023-05-10T09:34:05;2.80;;;2.53;;
17228;SDS011;8731;50.364;8.958;2023-05-10T09:38:27;4.33;;;2.50;;
17228;SDS011;8731;50.364;8.958;2023-05-10T09:42:51;4.10;;;1.80;;
17228;SDS011;8731;50.364;8.958;2023-05-10T09:47:18;2.37;;;1.50;;
17228;SDS011;8731;50.364;8.958;2023-05-10T09:51:40;3.47;;;1.83;;
17228;SDS011;8731;50.364;8.958;2023-05-10T09:56:03;8.53;;;3.47;;
17228;SDS011;8731;50.364;8.958;2023-05-10T10:00:26;4.07;;;1.73;;
17228;SDS011;8731;50.364;8.958;2023-05-10T10:04:50;4.17;;;1.90;;
17228;SDS011;8731;50.364;8.958;2023-05-10T10:09:13;2.83;;;1.60;;
17228;SDS011;8731;50.364;8.958;2023-05-10T10:13:38;3.27;;;1.63;;
17228;SDS011;8731;50.364;8.958;2023-05-10T10:18:01;2.60;;;1.80;;
17228;SDS011;8731;50.364;8.958;2023-05-10T10:22:26;2.33;;;1.90;;
17228;SDS011;8731;50.364;8.958;2023-05-10T10:26:48;3.73;;;1.37;;
17228;SDS011;8731;50.364;8.958;2023-05-10T10:31:17;1.87;;;1.50;;
17228;SDS011;8731;50.364;8.958;2023-05-10T10:35:50;2.47;;;1.50;;
17228;SDS011;8731;50.364;8.958;2023-05-10T10:40:25;3.53;;;1.53;;
17228;SDS011;8731;50.364;8.958;2023-05-10T10:44:50;2.47;;;1.43;;
17228;SDS011;8731;50.364;8.958;2023-05-10T10:49:42;1.67;;;1.30;;
17228;SDS011;8731;50.364;8.958;2023-05-10T10:54:12;2.47;;;1.77;;
17228;SDS011;8731;50.364;8.958;2023-05-10T10:58:51;2.30;;;1.60;;
17228;SDS011;8731;50.364;8.958;2023-05-10T11:03:14;2.87;;;2.17;;
17228;SDS011;8731;50.364;8.958;2023-05-10T11:07:50;2.97;;;1.90;;
17228;SDS011;8731;50.364;8.958;2023-05-10T11:12:14;3.03;;;2.00;;
17228;SDS011;8731;50.364;8.958;2023-05-10T11:16:42;2.63;;;1.50;;
17228;SDS011;8731;50.364;8.958;2023-05-10T11:21:07;2.93;;;1.80;;
17228;SDS011;8731;50.364;8.958;2023-05-10T11:25:31;2.30;;;1.77;;
17228;SDS011;8731;50.364;8.958;2023-05-10T11:29:54;2.57;;;1.63;;
17228;SDS011;8731;50.364;8.958;2023-05-10T11:34:24;3.50;;;2.30;;
17228;SDS011;8731;50.364;8.958;2023-05-10T11:38:50;5.77;;;2.00;;
17228;SDS011;8731;50.364;8.958;2023-05-10T11:43:13;2.57;;;1.43;;
17228;SDS011;8731;50.364;8.958;2023-05-10T11:47:35;3.57;;;1.57;;
17228;SDS011;8731;50.364;8.958;2023-05-10T11:52:07;4.00;;;1.80;;
17228;SDS011;8731;50.364;8.958;2023-05-10T11:56:32;3.80;;;2.23;;
17228;SDS011;8731;50.364;8.958;2023-05-10T12:00:55;3.30;;;2.00;;
17228;SDS011;8731;50.364;8.958;2023-05-10T12:05:18;7.40;;;2.40;;
17228;SDS011;8731;50.364;8.958;2023-05-10T12:09:43;2.57;;;1.30;;
17228;SDS011;8731;50.364;8.958;2023-05-10T12:14:05;3.20;;;1.33;;
17228;SDS011;8731;50.364;8.958;2023-05-10T12:18:29;3.77;;;1.40;;
17228;SDS011;8731;50.364;8.958;2023-05-10T12:22:53;2.00;;;1.40;;
17228;SDS011;8731;50.364;8.958;2023-05-10T12:27:20;3.77;;;1.20;;
17228;SDS011;8731;50.364;8.958;2023-05-10T12:31:49;1.50;;;1.27;;
17228;SDS011;8731;50.364;8.958;2023-05-10T12:36:13;3.10;;;1.10;;
17228;SDS011;8731;50.364;8.958;2023-05-10T12:40:38;3.50;;;1.50;;
17228;SDS011;8731;50.364;8.958;2023-05-10T12:45:01;4.93;;;1.53;;
17228;SDS011;8731;50.364;8.958;2023-05-10T12:49:25;3.93;;;1.87;;
17228;SDS011;8731;50.364;8.958;2023-05-10T12:53:47;1.30;;;1.20;;
17228;SDS011;8731;50.364;8.958;2023-05-10T12:58:10;3.83;;;1.70;;
17228;SDS011;8731;50.364;8.958;2023-05-10T13:02:33;2.07;;;1.30;;
17228;SDS011;8731;50.364;8.958;2023-05-10T13:06:56;2.20;;;1.40;;
17228;SDS011;8731;50.364;8.958;2023-05-10T13:11:18;3.00;;;1.40;;
17228;SDS011;8731;50.364;8.958;2023-05-10T13:15:41;1.87;;;1.30;;
17228;SDS011;8731;50.364;8.958;2023-05-10T13:20:06;1.37;;;1.13;;
17228;SDS011;8731;50.364;8.958;2023-05-10T13:24:29;3.97;;;1.40;;
17228;SDS011;8731;50.364;8.958;2023-05-10T13:28:51;1.67;;;1.40;;
17228;SDS011;8731;50.364;8.958;2023-05-10T13:33:15;1.20;;;1.10;;
17228;SDS011;8731;50.364;8.958;2023-05-10T13:37:39;2.67;;;1.30;;
17228;SDS011;8731;50.364;8.958;2023-05-10T13:42:01;4.00;;;1.53;;
17228;SDS011;8731;50.364;8.958;2023-05-10T13:46:24;5.00;;;3.07;;
17228;SDS011;8731;50.364;8.958;2023-05-10T13:50:46;12.30;;;7.30;;
17228;SDS011;8731;50.364;8.958;2023-05-10T13:55:10;3.83;;;3.43;;
17228;SDS011;8731;50.364;8.958;2023-05-10T13:59:33;5.10;;;4.23;;
17228;SDS011;8731;50.364;8.958;2023-05-10T14:03:55;4.67;;;3.37;;
17228;SDS011;8731;50.364;8.958;2023-05-10T14:08:17;7.57;;;6.37;;
17228;SDS011;8731;50.364;8.958;2023-05-10T14:12:41;12.70;;;11.30;;
17228;SDS011;8731;50.364;8.958;2023-05-10T14:17:03;2.50;;;2.30;;
17228;SDS011;8731;50.364;8.958;2023-05-10T14:21:26;2.30;;;1.37;;
17228;SDS011;8731;50.364;8.958;2023-05-10T14:25:49;1.83;;;1.40;;
17228;SDS011;8731;50.364;8.958;2023-05-10T14:30:13;1.43;;;1.27;;
17228;SDS011;8731;50.364;8.958;2023-05-10T14:34:36;1.63;;;1.53;;
17228;SDS011;8731;50.364;8.958;2023-05-10T14:38:58;2.70;;;1.60;;
17228;SDS011;8731;50.364;8.958;2023-05-10T14:43:21;1.53;;;1.17;;
17228;SDS011;8731;50.364;8.958;2023-05-10T14:47:45;3.20;;;1.07;;
17228;SDS011;8731;50.364;8.958;2023-05-10T14:52:07;1.80;;;0.90;;
17228;SDS011;8731;50.364;8.958;2023-05-10T14:56:32;3.23;;;1.27;;
17228;SDS011;8731;50.364;8.958;2023-05-10T15:00:54;0.83;;;0.80;;
17228;SDS011;8731;50.364;8.958;2023-05-10T15:05:18;1.53;;;1.13;;
17228;SDS011;8731;50.364;8.958;2023-05-10T15:09:40;1.30;;;0.80;;
17228;SDS011;8731;50.364;8.958;2023-05-10T15:14:03;1.73;;;0.80;;
17228;SDS011;8731;50.364;8.958;2023-05-10T15:18:26;2.30;;;0.97;;
17228;SDS011;8731;50.364;8.958;2023-05-10T15:22:49;2.67;;;1.00;;
17228;SDS011;8731;50.364;8.958;2023-05-10T15:27:12;1.30;;;0.70;;
17228;SDS011;8731;50.364;8.958;2023-05-10T15:31:34;3.00;;;0.70;;
17228;SDS011;8731;50.364;8.958;2023-05-10T15:35:56;0.90;;;0.90;;
17228;SDS011;8731;50.364;8.958;2023-05-10T15:40:20;2.27;;;0.93;;
17228;SDS011;8731;50.364;8.958;2023-05-10T15:44:43;2.60;;;0.90;;
17228;SDS011;8731;50.364;8.958;2023-05-10T15:49:10;6.93;;;0.87;;
17228;SDS011;8731;50.364;8.958;2023-05-10T15:53:32;2.27;;;0.70;;
17228;SDS011;8731;50.364;8.958;2023-05-10T15:57:56;2.00;;;0.90;;
17228;SDS011;8731;50.364;8.958;2023-05-10T16:02:19;2.93;;;0.67;;
17228;SDS011;8731;50.364;8.958;2023-05-10T16:06:42;1.53;;;0.70;;
17228;SDS011;8731;50.364;8.958;2023-05-10T16:11:04;2.03;;;0.87;;
17228;SDS011;8731;50.364;8.958;2023-05-10T16:15:30;1.07;;;0.70;;
17228;SDS011;8731;50.364;8.958;2023-05-10T16:19:52;2.43;;;0.90;;
17228;SDS011;8731;50.364;8.958;2023-05-10T16:24:14;2.90;;;1.00;;
17228;SDS011;8731;50.364;8.958;2023-05-10T16:28:37;2.03;;;0.80;;
17228;SDS011;8731;50.364;8.958;2023-05-10T16:33:02;2.30;;;1.00;;
17228;SDS011;8731;50.364;8.958;2023-05-10T16:37:25;0.70;;;0.70;;
17228;SDS011;8731;50.364;8.958;2023-05-10T16:41:48;2.30;;;0.80;;
17228;SDS011;8731;50.364;8.958;2023-05-10T16:46:10;0.77;;;0.70;;
17228;SDS011;8731;50.364;8.958;2023-05-10T16:50:34;1.07;;;0.80;;
17228;SDS011;8731;50.364;8.958;2023-05-10T16:54:56;4.90;;;1.90;;
17228;SDS011;8731;50.364;8.958;2023-05-10T16:59:19;1.80;;;0.90;;
17228;SDS011;8731;50.364;8.958;2023-05-10T17:03:41;3.10;;;0.73;;
17228;SDS011;8731;50.364;8.958;2023-05-10T17:08:05;3.13;;;0.77;;
17228;SDS011;8731;50.364;8.958;2023-05-10T17:12:28;2.67;;;1.00;;
17228;SDS011;8731;50.364;8.958;2023-05-10T17:16:50;2.33;;;1.10;;
17228;SDS011;8731;50.364;8.958;2023-05-10T17:21:14;4.23;;;1.00;;
17228;SDS011;8731;50.364;8.958;2023-05-10T17:25:37;1.33;;;0.90;;
17228;SDS011;8731;50.364;8.958;2023-05-10T17:30:01;1.43;;;0.90;;
17228;SDS011;8731;50.364;8.958;2023-05-10T17:34:23;3.13;;;0.90;;
17228;SDS011;8731;50.364;8.958;2023-05-10T17:38:46;2.20;;;0.70;;
17228;SDS011;8731;50.364;8.958;2023-05-10T17:43:10;3.60;;;0.80;;
17228;SDS011;8731;50.364;8.958;2023-05-10T17:47:32;3.93;;;0.80;;
17228;SDS011;8731;50.364;8.958;2023-05-10T17:51:54;0.80;;;0.77;;
17228;SDS011;8731;50.364;8.958;2023-05-10T17:56:17;1.67;;;0.87;;
17228;SDS011;8731;50.364;8.958;2023-05-10T18:00:40;1.00;;;0.80;;
17228;SDS011;8731;50.364;8.958;2023-05-10T18:05:03;2.83;;;0.87;;
17228;SDS011;8731;50.364;8.958;2023-05-10T18:09:26;3.30;;;0.70;;
17228;SDS011;8731;50.364;8.958;2023-05-10T18:13:49;2.07;;;1.20;;
17228;SDS011;8731;50.364;8.958;2023-05-10T18:18:13;13.63;;;1.50;;
17228;SDS011;8731;50.364;8.958;2023-05-10T18:22:36;6.60;;;1.17;;
17228;SDS011;8731;50.364;8.958;2023-05-10T18:26:59;6.67;;;1.23;;
17228;SDS011;8731;50.364;8.958;2023-05-10T18:31:22;3.10;;;1.10;;
17228;SDS011;8731;50.364;8.958;2023-05-10T18:35:46;2.57;;;0.90;;
17228;SDS011;8731;50.364;8.958;2023-05-10T18:40:08;2.60;;;0.90;;
17228;SDS011;8731;50.364;8.958;2023-05-10T18:44:33;3.50;;;0.90;;
17228;SDS011;8731;50.364;8.958;2023-05-10T18:48:55;1.87;;;1.17;;
17228;SDS011;8731;50.364;8.958;2023-05-10T18:53:19;2.53;;;0.83;;
17228;SDS011;8731;50.364;8.958;2023-05-10T18:57:42;3.27;;;1.00;;
17228;SDS011;8731;50.364;8.958;2023-05-10T19:02:04;3.03;;;1.10;;
17228;SDS011;8731;50.364;8.958;2023-05-10T19:06:27;8.37;;;1.20;;
17228;SDS011;8731;50.364;8.958;2023-05-10T19:10:50;5.43;;;1.10;;
17228;SDS011;8731;50.364;8.958;2023-05-10T19:15:13;2.80;;;1.00;;
17228;SDS011;8731;50.364;8.958;2023-05-10T19:19:35;2.60;;;1.50;;
17228;SDS011;8731;50.364;8.958;2023-05-10T19:23:57;1.43;;;1.20;;
17228;SDS011;8731;50.364;8.958;2023-05-10T19:28:22;2.77;;;1.30;;
17228;SDS011;8731;50.364;8.958;2023-05-10T19:32:44;1.77;;;1.30;;
17228;SDS011;8731;50.364;8.958;2023-05-10T19:37:06;1.80;;;1.00;;
17228;SDS011;8731;50.364;8.958;2023-05-10T19:41:28;2.90;;;1.20;;
17228;SDS011;8731;50.364;8.958;2023-05-10T19:45:52;3.17;;;1.03;;
17228;SDS011;8731;50.364;8.958;2023-05-10T19:50:15;3.60;;;1.10;;
17228;SDS011;8731;50.364;8.958;2023-05-10T19:54:38;2.43;;;1.00;;
17228;SDS011;8731;50.364;8.958;2023-05-10T19:59:00;2.37;;;1.00;;
17228;SDS011;8731;50.364;8.958;2023-05-10T20:03:24;6.50;;;1.47;;
17228;SDS011;8731;50.364;8.958;2023-05-10T20:07:47;5.17;;;1.30;;
17228;SDS011;8731;50.364;8.958;2023-05-10T20:12:09;6.77;;;1.60;;
17228;SDS011;8731;50.364;8.958;2023-05-10T20:16:32;6.50;;;1.27;;
17228;SDS011;8731;50.364;8.958;2023-05-10T20:20:56;3.80;;;1.50;;
17228;SDS011;8731;50.364;8.958;2023-05-10T20:25:20;6.27;;;1.67;;
17228;SDS011;8731;50.364;8.958;2023-05-10T20:29:43;3.60;;;1.43;;
17228;SDS011;8731;50.364;8.958;2023-05-10T20:34:05;3.73;;;1.20;;
17228;SDS011;8731;50.364;8.958;2023-05-10T20:38:29;7.60;;;1.43;;
17228;SDS011;8731;50.364;8.958;2023-05-10T20:42:51;3.37;;;1.43;;
17228;SDS011;8731;50.364;8.958;2023-05-10T20:47:14;3.70;;;1.20;;
17228;SDS011;8731;50.364;8.958;2023-05-10T20:51:37;2.83;;;1.40;;
17228;SDS011;8731;50.364;8.958;2023-05-10T20:56:01;4.07;;;1.37;;
17228;SDS011;8731;50.364;8.958;2023-05-10T21:00:23;6.20;;;2.10;;
17228;SDS011;8731;50.364;8.958;2023-05-10T21:04:46;4.40;;;2.00;;
17228;SDS011;8731;50.364;8.958;2023-05-10T21:09:08;6.97;;;2.20;;
17228;SDS011;8731;50.364;8.958;2023-05-10T21:13:32;6.60;;;2.00;;
17228;SDS011;8731;50.364;8.958;2023-05-10T21:17:55;4.17;;;1.43;;
17228;SDS011;8731;50.364;8.958;2023-05-10T21:22:17;5.13;;;1.30;;
17228;SDS011;8731;50.364;8.958;2023-05-10T21:26:40;1.40;;;1.10;;
17228;SDS011;8731;50.364;8.958;2023-05-10T21:31:04;1.80;;;0.80;;
17228;SDS011;8731;50.364;8.958;2023-05-10T21:35:26;2.23;;;1.23;;
17228;SDS011;8731;50.364;8.958;2023-05-10T21:39:50;2.00;;;1.17;;
17228;SDS011;8731;50.364;8.958;2023-05-10T21:44:13;6.73;;;1.30;;
17228;SDS011;8731;50.364;8.958;2023-05-10T21:48:36;3.93;;;1.27;;
17228;SDS011;8731;50.364;8.958;2023-05-10T21:52:59;3.90;;;1.40;;
17228;SDS011;8731;50.364;8.958;2023-05-10T21:57:22;3.20;;;1.30;;
17228;SDS011;8731;50.364;8.958;2023-05-10T22:01:44;5.03;;;1.10;;
17228;SDS011;8731;50.364;8.958;2023-05-10T22:06:08;3.27;;;0.90;;
17228;SDS011;8731;50.364;8.958;2023-05-10T22:10:30;11.23;;;1.50;;
17228;SDS011;8731;50.364;8.958;2023-05-10T22:14:58;2.63;;;1.43;;
17228;SDS011;8731;50.364;8.958;2023-05-10T22:19:21;4.43;;;1.43;;
17228;SDS011;8731;50.364;8.958;2023-05-10T22:23:45;4.00;;;1.30;;
17228;SDS011;8731;50.364;8.958;2023-05-10T22:28:07;6.43;;;1.50;;
17228;SDS011;8731;50.364;8.958;2023-05-10T22:32:30;3.13;;;1.00;;
17228;SDS011;8731;50.364;8.958;2023-05-10T22:36:53;3.60;;;1.50;;
17228;SDS011;8731;50.364;8.958;2023-05-10T22:41:17;3.00;;;1.10;;
17228;SDS011;8731;50.364;8.958;2023-05-10T22:45:39;8.17;;;1.00;;
17228;SDS011;8731;50.364;8.958;2023-05-10T22:50:01;6.33;;;1.40;;
17228;SDS011;8731;50.364;8.958;2023-05-10T22:54:24;6.73;;;1.50;;
17228;SDS011;8731;50.364;8.958;2023-05-10T22:58:48;5.60;;;1.40;;
17228;SDS011;8731;50.364;8.958;2023-05-10T23:03:11;5.33;;;1.17;;
17228;SDS011;8731;50.364;8.958;2023-05-10T23:07:33;4.77;;;1.73;;
17228;SDS011;8731;50.364;8.958;2023-05-10T23:11:56;2.87;;;1.40;;
17228;SDS011;8731;50.364;8.958;2023-05-10T23:16:19;3.80;;;1.20;;
17228;SDS011;8731;50.364;8.958;2023-05-10T23:20:42;2.00;;;1.80;;
17228;SDS011;8731;50.364;8.958;2023-05-10T23:25:05;3.40;;;1.47;;
17228;SDS011;8731;50.364;8.958;2023-05-10T23:29:28;3.07;;;1.40;;
17228;SDS011;8731;50.364;8.958;2023-05-10T23:33:52;1.77;;;1.40;;
17228;SDS011;8731;50.364;8.958;2023-05-10T23:38:15;3.00;;;1.70;;
17228;SDS011;8731;50.364;8.958;2023-05-10T23:42:38;4.90;;;1.30;;
17228;SDS011;8731;50.364;8.958;2023-05-10T23:47:00;3.00;;;1.23;;
17228;SDS011;8731;50.364;8.958;2023-05-10T23:51:24;2.33;;;1.10;;
17228;SDS011;8731;50.364;8.958;2023-05-10T23:55:47;5.50;;;1.20;;
